sim
Sign-in with your pilot id or email,
or register
Callsign
Passwort

Schedule Details

Flight Number: RYR2524 (3)
Departure: Malaga Costa Del Sol Airport (LEMG) at 13:45
Arrival: Gothenburg Landvetter Airport (ESGG) at 17:45
Route: Ryanair Passenger Schedule. Enter filed route here before submitting Pirep.

Weather Information
Getting current METAR information for LEMG 200200Z 30004KT 9999 FEW015 BKN035 17/14 Q1017 NOSIG
Getting current METAR information for ESGG 200220Z 14010KT 9999 SCT036 BKN048 04/03 Q1015

Schedule Frequency

Route Map